createdAt,value
2019-05-19T00:01:34.920Z,18.20
2019-05-19T00:06:38.806Z,18.00
2019-05-19T00:11:43.120Z,18.20
2019-05-19T00:16:47.083Z,18.00
2019-05-19T00:21:52.087Z,18.00
2019-05-19T00:26:56.848Z,17.80
2019-05-19T00:32:01.187Z,17.90
2019-05-19T00:37:05.859Z,17.80
2019-05-19T00:42:10.572Z,18.00
2019-05-19T00:47:15.170Z,17.70
2019-05-19T00:52:19.568Z,17.80
2019-05-19T00:57:24.515Z,17.90
2019-05-19T01:02:29.199Z,17.40
2019-05-19T01:07:33.869Z,17.40
2019-05-19T01:12:38.598Z,17.40
2019-05-19T01:17:43.277Z,17.60
2019-05-19T01:22:47.611Z,17.50
2019-05-19T01:27:51.971Z,17.60
2019-05-19T01:32:56.294Z,17.60
2019-05-19T01:38:00.580Z,17.50
2019-05-19T01:43:04.646Z,17.40
2019-05-19T01:48:09.442Z,17.40
2019-05-19T01:53:13.864Z,17.30
2019-05-19T01:58:18.295Z,17.40
2019-05-19T02:03:22.811Z,17.20
2019-05-19T02:08:27.456Z,17.30
2019-05-19T02:13:31.871Z,17.30
2019-05-19T02:18:35.934Z,17.50
2019-05-19T02:23:40.872Z,17.30
2019-05-19T02:28:45.208Z,17.30
2019-05-19T02:33:49.282Z,17.30
2019-05-19T02:38:53.547Z,17.00
2019-05-19T02:43:59.101Z,17.00
2019-05-19T02:49:04.430Z,17.10
2019-05-19T02:54:09.549Z,17.00
2019-05-19T02:59:14.237Z,17.10
2019-05-19T03:04:18.940Z,16.90
2019-05-19T03:09:23.993Z,17.00
2019-05-19T03:14:28.395Z,16.90
2019-05-19T03:19:32.467Z,16.70
2019-05-19T03:24:36.797Z,16.70
2019-05-19T03:29:45.701Z,16.80
2019-05-19T03:34:50.997Z,16.80
2019-05-19T03:39:55.174Z,16.50
2019-05-19T03:44:59.311Z,16.50
2019-05-19T03:50:03.388Z,16.50
2019-05-19T03:55:07.631Z,16.90
2019-05-19T04:00:12.325Z,16.70
2019-05-19T04:05:16.396Z,16.60
2019-05-19T04:10:20.460Z,16.70
2019-05-19T04:15:24.867Z,17.00
2019-05-19T04:20:29.542Z,16.70
2019-05-19T04:25:33.640Z,16.60
2019-05-19T04:30:38.284Z,16.60
2019-05-19T04:35:42.642Z,16.90
2019-05-19T04:40:47.601Z,16.30
2019-05-19T04:45:52.056Z,16.60
2019-05-19T04:50:56.345Z,16.70
2019-05-19T04:56:00.656Z,16.70
2019-05-19T05:01:05.111Z,16.50
2019-05-19T05:06:09.755Z,16.60
2019-05-19T05:11:14.299Z,16.60
2019-05-19T05:16:18.683Z,16.70
2019-05-19T05:21:23.613Z,16.50
2019-05-19T05:26:27.883Z,16.60
2019-05-19T05:31:32.568Z,16.60
2019-05-19T05:36:37.784Z,16.40
2019-05-19T05:41:42.439Z,16.50
2019-05-19T05:46:46.803Z,16.80
2019-05-19T05:51:51.519Z,16.70
2019-05-19T05:56:55.884Z,16.60
2019-05-19T06:02:00.295Z,16.90
2019-05-19T06:07:04.384Z,16.80
2019-05-19T06:12:08.732Z,16.60
2019-05-19T06:17:12.794Z,16.80
2019-05-19T06:22:17.199Z,16.40
2019-05-19T06:27:21.567Z,16.60
2019-05-19T06:32:32.787Z,17.00
2019-05-19T06:37:36.839Z,17.10
2019-05-19T06:42:41.219Z,16.80
2019-05-19T06:47:45.859Z,16.80
2019-05-19T06:52:50.555Z,17.20
2019-05-19T06:57:54.915Z,16.90
2019-05-19T07:02:58.911Z,17.10
2019-05-19T07:08:03.565Z,17.30
2019-05-19T07:13:10.607Z,17.40
2019-05-19T07:18:15.354Z,17.40
2019-05-19T07:23:27.970Z,18.10
2019-05-19T07:28:26.268Z,18.20
2019-05-19T07:33:31.016Z,18.20
2019-05-19T07:38:35.083Z,18.40
2019-05-19T07:43:39.480Z,18.30
2019-05-19T07:48:43.483Z,18.40
2019-05-19T07:53:48.174Z,18.60
2019-05-19T07:58:52.607Z,18.30
2019-05-19T08:03:56.711Z,18.40
2019-05-19T08:09:01.164Z,18.50
2019-05-19T08:14:06.555Z,18.40
2019-05-19T08:19:11.211Z,18.80
2019-05-19T08:24:15.672Z,18.70
2019-05-19T08:29:20.140Z,19.00
2019-05-19T08:34:24.252Z,19.00
2019-05-19T08:39:28.566Z,20.10
2019-05-19T08:44:33.013Z,20.50
2019-05-19T08:49:37.473Z,20.60
2019-05-19T08:54:42.099Z,20.70
2019-05-19T08:59:46.724Z,20.90
2019-05-19T09:04:50.791Z,21.00
2019-05-19T09:09:55.512Z,20.90
2019-05-19T09:14:59.747Z,20.70
2019-05-19T09:20:04.285Z,20.90
2019-05-19T09:25:08.634Z,21.20
2019-05-19T09:30:13.003Z,21.10
2019-05-19T09:35:17.071Z,21.00
2019-05-19T09:40:21.417Z,21.40
2019-05-19T09:45:25.451Z,21.20
2019-05-19T09:50:29.943Z,21.00
2019-05-19T09:55:34.066Z,21.50
2019-05-19T10:00:38.755Z,21.20
2019-05-19T10:05:43.343Z,21.40
2019-05-19T10:11:07.083Z,21.40
2019-05-19T10:16:11.730Z,21.50
2019-05-19T10:21:16.652Z,21.50
2019-05-19T10:26:21.223Z,21.70
2019-05-19T10:31:25.792Z,21.30
2019-05-19T10:36:29.928Z,21.60
2019-05-19T10:41:33.990Z,21.70
2019-05-19T10:46:38.671Z,21.50
2019-05-19T10:51:42.823Z,21.70
2019-05-19T10:56:46.871Z,21.90
2019-05-19T11:01:50.955Z,21.80
2019-05-19T11:06:55.601Z,21.80
2019-05-19T11:11:59.911Z,22.00
2019-05-19T11:17:04.273Z,22.00
2019-05-19T11:22:08.700Z,22.10
2019-05-19T11:27:13.355Z,22.00
2019-05-19T11:32:18.272Z,22.10
2019-05-19T11:37:22.841Z,22.40
2019-05-19T11:42:27.807Z,22.30
2019-05-19T11:47:32.203Z,22.50
2019-05-19T11:52:36.577Z,22.10
2019-05-19T11:57:40.567Z,22.40
2019-05-19T12:02:45.447Z,22.60
2019-05-19T12:07:50.395Z,22.50
2019-05-19T12:12:54.774Z,22.60
2019-05-19T12:17:58.823Z,22.50
2019-05-19T12:23:03.158Z,22.30
2019-05-19T12:28:07.645Z,22.60
2019-05-19T12:33:13.054Z,22.50
2019-05-19T12:38:17.699Z,22.50
2019-05-19T12:43:22.388Z,22.40
2019-05-19T12:48:27.134Z,22.50
2019-05-19T12:53:31.475Z,22.70
2019-05-19T12:58:36.220Z,22.50
2019-05-19T13:03:40.576Z,22.30
2019-05-19T13:08:44.994Z,22.10
2019-05-19T13:13:49.728Z,22.20
2019-05-19T13:18:54.032Z,22.20
2019-05-19T13:23:58.760Z,21.80
2019-05-19T13:29:02.881Z,21.90
2019-05-19T13:34:07.592Z,21.70
2019-05-19T13:39:12.002Z,21.50
2019-05-19T13:44:16.340Z,21.60
2019-05-19T13:49:21.079Z,21.40
2019-05-19T13:54:25.651Z,21.50
2019-05-19T13:59:30.490Z,21.70
2019-05-19T14:04:34.939Z,22.30
2019-05-19T14:09:39.171Z,22.20
2019-05-19T14:14:43.863Z,22.00
2019-05-19T14:19:48.210Z,21.90
2019-05-19T14:24:52.250Z,21.80
2019-05-19T14:29:56.483Z,21.50
2019-05-19T14:35:01.010Z,21.50
2019-05-19T14:40:05.614Z,21.60
2019-05-19T14:45:09.996Z,21.30
2019-05-19T14:50:14.928Z,21.20
2019-05-19T14:55:19.516Z,21.30
2019-05-19T15:00:24.289Z,21.50
2019-05-19T15:05:28.667Z,21.50
2019-05-19T15:10:32.818Z,21.60
2019-05-19T15:15:36.923Z,21.40
2019-05-19T15:21:00.631Z,21.50
2019-05-19T15:26:05.267Z,21.40
2019-05-19T15:31:10.231Z,21.70
2019-05-19T15:36:15.004Z,21.40
2019-05-19T15:41:19.381Z,21.50
2019-05-19T15:46:23.511Z,21.80
2019-05-19T15:51:30.021Z,21.80
2019-05-19T15:56:34.249Z,21.70
2019-05-19T16:01:39.497Z,21.60
2019-05-19T16:06:43.567Z,21.60
2019-05-19T16:11:47.963Z,21.60
2019-05-19T16:16:52.286Z,21.80
2019-05-19T16:21:56.799Z,21.70
2019-05-19T16:27:01.170Z,21.60
2019-05-19T16:32:05.200Z,21.70
2019-05-19T16:37:09.779Z,21.70
2019-05-19T16:42:14.366Z,21.70
2019-05-19T16:47:43.946Z,21.80
2019-05-19T16:52:48.616Z,21.70
2019-05-19T16:57:52.682Z,21.90
2019-05-19T17:02:57.362Z,21.90
2019-05-19T17:08:01.771Z,21.90
2019-05-19T17:13:06.442Z,21.70
2019-05-19T17:18:11.113Z,21.90
2019-05-19T17:23:15.019Z,22.00
2019-05-19T17:28:19.011Z,22.00
2019-05-19T17:33:23.269Z,21.80
2019-05-19T17:38:27.939Z,21.90
2019-05-19T17:43:32.604Z,21.80
2019-05-19T17:48:36.951Z,21.60
2019-05-19T17:53:41.691Z,21.70
2019-05-19T17:58:47.435Z,21.50
2019-05-19T18:03:52.596Z,21.90
2019-05-19T18:08:56.990Z,22.00
2019-05-19T18:14:01.372Z,22.00
2019-05-19T18:19:05.441Z,21.70
2019-05-19T18:24:09.435Z,21.80
2019-05-19T18:29:13.708Z,21.50
2019-05-19T18:34:18.428Z,21.70
2019-05-19T18:39:22.433Z,21.70
2019-05-19T18:44:26.724Z,21.70
2019-05-19T18:49:30.852Z,21.70
2019-05-19T18:54:35.194Z,21.80
2019-05-19T18:59:47.476Z,21.90
2019-05-19T19:04:45.899Z,21.50
2019-05-19T19:09:49.822Z,21.70
2019-05-19T19:14:54.362Z,21.40
2019-05-19T19:19:58.331Z,21.30
2019-05-19T19:25:02.807Z,21.40
2019-05-19T19:30:07.064Z,21.30
2019-05-19T19:35:11.499Z,21.50
2019-05-19T19:40:19.727Z,21.10
2019-05-19T19:45:24.288Z,21.00
2019-05-19T19:50:28.607Z,21.20
2019-05-19T19:55:32.963Z,21.00
2019-05-19T20:00:42.758Z,21.20
2019-05-19T20:05:47.117Z,21.20
2019-05-19T20:10:51.331Z,20.90
2019-05-19T20:15:55.839Z,21.00
2019-05-19T20:21:00.095Z,21.00
2019-05-19T20:26:04.420Z,20.90
2019-05-19T20:31:08.891Z,20.40
2019-05-19T20:36:13.636Z,20.50
2019-05-19T20:41:18.527Z,20.50
2019-05-19T20:46:23.844Z,20.50
2019-05-19T20:51:28.578Z,20.30
2019-05-19T20:56:32.652Z,20.50
2019-05-19T21:01:36.931Z,20.40
2019-05-19T21:06:41.418Z,20.10
2019-05-19T21:11:45.766Z,20.20
2019-05-19T21:16:50.107Z,20.10
2019-05-19T21:21:54.596Z,20.10
2019-05-19T21:26:58.963Z,20.00
2019-05-19T21:32:02.967Z,20.00
2019-05-19T21:37:07.579Z,20.00
2019-05-19T21:42:12.245Z,19.70
2019-05-19T21:47:16.319Z,19.70
2019-05-19T21:52:20.955Z,19.90
2019-05-19T21:57:25.392Z,19.50
2019-05-19T22:02:29.630Z,19.60
2019-05-19T22:08:10.871Z,19.50
2019-05-19T22:13:15.783Z,19.40
2019-05-19T22:18:20.088Z,19.40
2019-05-19T22:23:24.851Z,19.50
2019-05-19T22:28:29.135Z,19.30
2019-05-19T22:33:33.123Z,19.20
2019-05-19T22:38:37.311Z,19.30
2019-05-19T22:43:41.701Z,19.30
2019-05-19T22:48:46.348Z,19.10
2019-05-19T22:53:50.919Z,19.10
2019-05-19T22:58:55.417Z,19.20
2019-05-19T23:04:00.331Z,19.00
2019-05-19T23:09:06.063Z,19.10
2019-05-19T23:14:10.171Z,18.80
2019-05-19T23:19:15.084Z,18.90
2019-05-19T23:24:19.284Z,18.90
2019-05-19T23:29:23.268Z,18.90
2019-05-19T23:34:27.302Z,18.90
2019-05-19T23:39:31.439Z,18.80
2019-05-19T23:44:35.811Z,18.80
2019-05-19T23:49:40.693Z,18.60
2019-05-19T23:54:45.092Z,18.70
2019-05-19T23:59:49.718Z,18.90
